createdAt,value
2023-05-12T00:02:38.183Z,3.00
2023-05-12T00:10:47.044Z,2.80
2023-05-12T00:14:52.194Z,3.40
2023-05-12T00:18:57.403Z,3.10
2023-05-12T00:23:02.541Z,3.60
2023-05-12T00:27:08.245Z,2.90
2023-05-12T00:31:13.443Z,3.30
2023-05-12T00:35:18.582Z,3.20
2023-05-12T00:39:23.952Z,2.90
2023-05-12T00:43:29.145Z,2.90
2023-05-12T00:47:34.591Z,3.40
2023-05-12T00:51:39.991Z,3.30
2023-05-12T00:59:48.785Z,2.90
2023-05-12T01:03:54.089Z,2.60
2023-05-12T01:08:01.201Z,2.90
2023-05-12T01:12:06.928Z,2.70
2023-05-12T01:16:14.205Z,2.70
2023-05-12T01:20:20.186Z,3.00
2023-05-12T01:24:28.427Z,2.80
2023-05-12T01:28:34.302Z,2.70
2023-05-12T01:32:39.762Z,2.80
2023-05-12T01:36:45.079Z,2.60
2023-05-12T01:40:50.184Z,2.80
2023-05-12T01:44:55.368Z,2.80
2023-05-12T01:49:00.424Z,2.80
2023-05-12T01:53:07.190Z,2.60
2023-05-12T01:57:12.296Z,2.40
2023-05-12T02:01:17.409Z,2.30
2023-05-12T02:05:22.538Z,2.70
2023-05-12T02:09:27.614Z,2.60
2023-05-12T02:13:32.722Z,2.60
2023-05-12T02:17:38.153Z,2.30
2023-05-12T02:25:47.642Z,2.60
2023-05-12T02:29:53.102Z,2.00
2023-05-12T02:38:02.262Z,2.30
2023-05-12T02:42:08.407Z,2.50
2023-05-12T02:46:13.635Z,2.20
2023-05-12T02:50:19.116Z,2.30
2023-05-12T02:54:24.460Z,2.60
2023-05-12T02:58:29.632Z,2.80
2023-05-12T03:02:34.874Z,2.50
2023-05-12T03:10:44.600Z,2.50
2023-05-12T03:14:49.879Z,2.70
2023-05-12T03:18:54.996Z,2.30
2023-05-12T03:23:00.207Z,2.30
2023-05-12T03:27:05.670Z,2.30
2023-05-12T03:31:11.176Z,2.70
2023-05-12T03:39:19.861Z,2.90
2023-05-12T03:43:25.356Z,2.40
2023-05-12T03:51:34.526Z,1.90
2023-05-12T03:55:39.673Z,2.60
2023-05-12T03:59:45.234Z,2.50
2023-05-12T04:07:54.142Z,2.50
2023-05-12T04:11:59.805Z,2.30
2023-05-12T04:16:06.312Z,2.60
2023-05-12T04:20:12.536Z,2.40
2023-05-12T04:24:18.107Z,2.20
2023-05-12T04:28:23.280Z,2.50
2023-05-12T04:32:28.444Z,2.60
2023-05-12T04:36:33.738Z,2.20
2023-05-12T04:40:38.882Z,2.30
2023-05-12T04:44:46.197Z,2.60
2023-05-12T04:48:51.324Z,2.50
2023-05-12T04:52:56.593Z,2.40
2023-05-12T04:57:02.094Z,2.60
2023-05-12T05:01:07.424Z,2.80
2023-05-12T05:05:12.807Z,2.30
2023-05-12T05:09:17.860Z,2.40
2023-05-12T05:13:22.963Z,2.30
2023-05-12T05:17:28.176Z,2.10
2023-05-12T05:25:38.799Z,2.00
2023-05-12T05:29:43.850Z,2.30
2023-05-12T05:33:49.145Z,2.30
2023-05-12T05:37:54.643Z,2.00
2023-05-12T05:41:59.896Z,1.90
2023-05-12T05:46:05.368Z,2.00
2023-05-12T05:50:11.284Z,2.10
2023-05-12T05:54:16.351Z,2.00
2023-05-12T06:02:25.193Z,1.70
2023-05-12T06:06:31.414Z,1.90
2023-05-12T06:10:36.558Z,1.70
2023-05-12T06:14:41.611Z,2.10
2023-05-12T06:26:53.950Z,2.10
2023-05-12T06:30:59.956Z,1.70
2023-05-12T06:35:05.357Z,2.40
2023-05-12T06:39:10.491Z,1.70
2023-05-12T06:43:15.619Z,2.00
2023-05-12T06:47:20.698Z,1.80
2023-05-12T06:51:25.876Z,1.90
2023-05-12T06:55:30.985Z,1.70
2023-05-12T06:59:36.169Z,1.80
2023-05-12T07:03:41.348Z,1.60
2023-05-12T07:07:47.658Z,1.60
2023-05-12T07:11:53.168Z,1.90
2023-05-12T07:15:58.283Z,2.20
2023-05-12T07:20:05.035Z,1.80
2023-05-12T07:24:10.281Z,1.70
2023-05-12T07:28:15.422Z,1.60
2023-05-12T07:32:20.530Z,1.60
2023-05-12T07:36:25.639Z,2.10
2023-05-12T07:40:30.720Z,1.40
2023-05-12T07:44:36.388Z,2.20
2023-05-12T07:48:41.474Z,1.50
2023-05-12T07:52:50.981Z,2.00
2023-05-12T07:56:56.088Z,1.80
2023-05-12T08:01:05.901Z,1.60
2023-05-12T08:05:11.721Z,1.90
2023-05-12T08:09:16.829Z,2.70
2023-05-12T08:13:21.897Z,2.40
2023-05-12T08:17:29.155Z,2.20
2023-05-12T08:21:34.543Z,1.90
2023-05-12T08:25:41.229Z,2.30
2023-05-12T08:29:46.326Z,2.00
2023-05-12T08:34:02.723Z,1.70
2023-05-12T08:42:26.624Z,1.50
2023-05-12T08:46:32.877Z,2.20
2023-05-12T08:50:39.650Z,2.60
2023-05-12T08:54:55.657Z,1.30
2023-05-12T08:59:01.969Z,1.90
2023-05-12T09:03:07.914Z,2.10
2023-05-12T09:07:13.257Z,1.90
2023-05-12T09:11:18.972Z,2.30
2023-05-12T09:15:27.331Z,1.80
2023-05-12T09:19:32.771Z,1.60
2023-05-12T09:23:37.858Z,1.60
2023-05-12T09:27:42.920Z,2.00
2023-05-12T09:31:54.512Z,1.90
2023-05-12T09:36:01.163Z,1.70
2023-05-12T09:40:07.464Z,2.20
2023-05-12T09:44:16.530Z,1.80
2023-05-12T09:48:22.394Z,2.10
2023-05-12T09:52:27.541Z,2.20
2023-05-12T09:56:33.801Z,2.10
2023-05-12T10:01:05.966Z,2.10
2023-05-12T10:05:07.741Z,2.00
2023-05-12T10:09:21.561Z,2.20
2023-05-12T10:13:27.506Z,1.90
2023-05-12T10:17:33.283Z,2.00
2023-05-12T10:21:45.972Z,1.70
2023-05-12T10:25:51.127Z,1.90
2023-05-12T10:29:56.814Z,1.90
2023-05-12T10:34:26.046Z,1.90
2023-05-12T10:38:57.556Z,2.10
2023-05-12T10:43:12.213Z,2.00
2023-05-12T10:47:17.420Z,2.10
2023-05-12T10:51:23.933Z,2.40
2023-05-12T10:55:34.300Z,2.00
2023-05-12T11:00:21.000Z,2.20
2023-05-12T11:04:50.840Z,1.70
2023-05-12T11:09:06.602Z,1.90
2023-05-12T11:13:12.179Z,1.90
2023-05-12T11:17:17.302Z,1.90
2023-05-12T11:21:28.976Z,2.20
2023-05-12T11:25:34.238Z,1.90
2023-05-12T11:29:40.350Z,2.00
2023-05-12T11:34:12.021Z,2.40
2023-05-12T11:38:24.556Z,1.50
2023-05-12T11:42:29.844Z,2.30
2023-05-12T11:46:35.170Z,1.80
2023-05-12T11:50:44.740Z,1.90
2023-05-12T11:54:51.617Z,2.20
2023-05-12T11:58:57.858Z,2.40
2023-05-12T12:03:11.435Z,1.80
2023-05-12T12:07:17.252Z,2.10
2023-05-12T12:11:23.285Z,2.30
2023-05-12T12:15:30.830Z,2.30
2023-05-12T12:19:35.976Z,2.20
2023-05-12T12:23:50.487Z,2.30
2023-05-12T12:27:59.869Z,2.00
2023-05-12T12:32:09.119Z,2.00
2023-05-12T12:41:16.821Z,2.50
2023-05-12T12:45:45.472Z,2.00
2023-05-12T12:54:04.254Z,1.90
2023-05-12T12:58:09.311Z,1.40
2023-05-12T13:02:29.374Z,2.10
2023-05-12T13:06:34.906Z,2.00
2023-05-12T13:10:47.432Z,2.10
2023-05-12T13:14:57.591Z,2.20
2023-05-12T13:19:26.431Z,2.00
2023-05-12T13:28:35.336Z,2.20
2023-05-12T13:33:06.904Z,2.50
2023-05-12T13:37:29.151Z,2.50
2023-05-12T13:45:49.387Z,2.20
2023-05-12T13:50:18.817Z,1.90
2023-05-12T13:55:00.608Z,2.10
2023-05-12T13:59:11.834Z,2.40
2023-05-12T14:03:16.991Z,2.20
2023-05-12T14:07:22.188Z,2.00
2023-05-12T14:11:51.369Z,1.90
2023-05-12T14:16:17.225Z,2.30
2023-05-12T14:20:46.656Z,2.10
2023-05-12T14:29:08.967Z,2.30
2023-05-12T14:33:14.302Z,2.30
2023-05-12T14:37:28.659Z,2.50
2023-05-12T14:41:33.755Z,1.80
2023-05-12T14:45:39.197Z,1.90
2023-05-12T14:50:08.362Z,2.00
2023-05-12T14:54:24.719Z,2.30
2023-05-12T14:58:31.024Z,2.30
2023-05-12T15:02:36.297Z,2.30
2023-05-12T15:06:59.715Z,2.30
2023-05-12T15:11:05.048Z,2.30
2023-05-12T15:15:11.877Z,2.40
2023-05-12T15:19:17.768Z,2.30
2023-05-12T15:23:36.457Z,2.30
2023-05-12T15:27:42.098Z,2.30
2023-05-12T15:31:49.012Z,2.30
2023-05-12T15:36:17.471Z,2.00
2023-05-12T15:40:34.673Z,2.30
2023-05-12T15:44:39.872Z,2.10
2023-05-12T15:48:44.983Z,2.20
2023-05-12T15:52:56.767Z,3.40
2023-05-12T15:57:01.943Z,2.40
2023-05-12T16:01:07.162Z,2.10
2023-05-12T16:05:17.862Z,2.30
2023-05-12T16:09:23.433Z,1.70
2023-05-12T16:13:28.554Z,1.90
2023-05-12T16:17:33.746Z,2.20
2023-05-12T16:21:51.016Z,2.30
2023-05-12T16:25:56.296Z,2.20
2023-05-12T16:30:01.430Z,2.40
2023-05-12T16:34:15.565Z,2.30
2023-05-12T16:38:20.811Z,2.10
2023-05-12T16:42:34.258Z,2.10
2023-05-12T16:46:41.477Z,2.10
2023-05-12T16:51:50.903Z,2.20
2023-05-12T16:56:16.432Z,2.10
2023-05-12T17:00:33.789Z,2.10
2023-05-12T17:04:38.898Z,2.30
2023-05-12T17:08:44.154Z,1.90
2023-05-12T17:13:12.316Z,2.00
2023-05-12T17:17:26.920Z,2.20
2023-05-12T17:21:32.775Z,1.90
2023-05-12T17:25:37.856Z,1.90
2023-05-12T17:29:50.044Z,2.20
2023-05-12T17:33:55.187Z,2.00
2023-05-12T17:38:00.426Z,2.00
2023-05-12T17:42:31.458Z,2.30
2023-05-12T17:46:43.487Z,2.10
2023-05-12T17:50:53.042Z,2.10
2023-05-12T18:04:22.934Z,2.40
2023-05-12T18:08:28.207Z,2.20
2023-05-12T18:12:33.422Z,2.10
2023-05-12T18:16:39.029Z,3.30
2023-05-12T18:20:44.193Z,2.90
2023-05-12T18:24:50.773Z,2.60
2023-05-12T18:28:55.829Z,2.50
2023-05-12T18:33:00.965Z,2.60
2023-05-12T18:37:06.391Z,2.10
2023-05-12T18:41:11.669Z,2.60
2023-05-12T18:45:18.696Z,3.70
2023-05-12T18:49:24.044Z,3.70
2023-05-12T18:53:29.240Z,3.30
2023-05-12T18:57:34.279Z,4.10
2023-05-12T19:01:39.865Z,4.20
2023-05-12T19:05:46.452Z,3.60
2023-05-12T19:09:51.789Z,3.60
2023-05-12T19:13:56.897Z,3.50
2023-05-12T19:18:02.059Z,3.50
2023-05-12T19:22:07.746Z,3.80
2023-05-12T19:26:12.850Z,4.50
2023-05-12T19:30:18.025Z,3.30
2023-05-12T19:34:24.010Z,3.40
2023-05-12T19:38:29.116Z,3.90
2023-05-12T19:42:35.870Z,3.70
2023-05-12T19:46:41.108Z,4.00
2023-05-12T19:50:46.905Z,3.10
2023-05-12T19:54:52.405Z,3.70
2023-05-12T19:58:57.569Z,3.30
2023-05-12T20:03:03.896Z,3.40
2023-05-12T20:07:10.684Z,3.60
2023-05-12T20:11:15.955Z,4.60
2023-05-12T20:15:21.806Z,4.40
2023-05-12T20:19:27.845Z,4.60
2023-05-12T20:23:32.973Z,5.60
2023-05-12T20:27:38.067Z,5.00
2023-05-12T20:31:43.358Z,4.90
2023-05-12T20:35:48.641Z,5.00
2023-05-12T20:39:54.226Z,4.60
2023-05-12T20:43:59.305Z,5.40
2023-05-12T20:52:09.732Z,5.80
2023-05-12T20:56:14.869Z,5.20
2023-05-12T21:04:23.931Z,5.30
2023-05-12T21:08:29.159Z,6.30
2023-05-12T21:12:34.345Z,6.70
2023-05-12T21:16:39.475Z,7.20
2023-05-12T21:20:45.328Z,7.20
2023-05-12T21:24:51.637Z,7.20
2023-05-12T21:28:57.655Z,6.70
2023-05-12T21:33:02.854Z,6.30
2023-05-12T21:37:08.016Z,6.70
2023-05-12T21:45:17.102Z,6.70
2023-05-12T21:49:22.189Z,7.30
2023-05-12T21:57:30.947Z,7.10
2023-05-12T22:01:36.075Z,6.60
2023-05-12T22:09:45.033Z,6.40
2023-05-12T22:13:50.228Z,6.30
2023-05-12T22:21:58.967Z,6.20
2023-05-12T22:34:11.730Z,5.80
2023-05-12T22:38:17.063Z,6.50
2023-05-12T22:42:22.367Z,6.30
2023-05-12T22:46:27.558Z,5.40
2023-05-12T22:54:36.229Z,6.20
2023-05-12T22:58:41.336Z,6.10
2023-05-12T23:02:46.507Z,6.70
2023-05-12T23:06:52.137Z,5.60
2023-05-12T23:10:57.600Z,5.80
2023-05-12T23:15:02.955Z,5.80
2023-05-12T23:19:08.320Z,5.40
2023-05-12T23:23:13.629Z,6.60
2023-05-12T23:27:18.808Z,5.90
2023-05-12T23:31:24.274Z,5.70
2023-05-12T23:35:29.415Z,6.10
2023-05-12T23:43:39.048Z,5.30
2023-05-12T23:47:44.654Z,6.30
2023-05-12T23:51:49.845Z,5.60
2023-05-12T23:55:55.039Z,6.10
